General Juan N Alvarez International Airport
MMAA : now visible

Airfield :











YOU CAN JOIN US ON...

 
LOGIN :

Register | Disclaimer

   EN    FR    IT 

 









Legend :    VFR   Marginal VFR   IFR   Intensive IFR   Very Intensive IFR
Visi :
Ceiling :
>= 8 km
>= 3000ft
5 to 8 km
1000 to 3000 ft
1500m to 5 km
500 to 1000 ft
800 to 1500m
200 to 500 ft
< 800m
< 200 ft
Symbols :   Thunderstorms  Fog  Heavy snow  Heavy precipitations  Wind > 20 kt






- Airport Elevation : 16 ft
- IATA code : ACA


MMAA - General Juan N Alvarez International

CURRENT METAR :
  • 190446Z 28008KT 5SM BKN300 30/25 A2991 RMK 8/008 HZY

EXPIRED METARs :
  • 190344Z 26009KT 5SM BKN300 30/25 A2989 RMK 8/008 HZY
  • 190246Z 26008KT 5SM BKN300 30/26 A2986 RMK SLP112 52021 957 8/008 HZY
  • 190145Z 25010KT 5SM FEW100 BKN300 30/25 A2985 RMK 8/038 HZY
  • 190047Z 26008KT 6SM OVC300 30/25 A2982 RMK 8/007 HZY DSNT CB NE TCU NW

TAF TAF MMAA
Valid from the 19 at 00:00 until the 20 at 00:00 UTC


182245Z 1900/2000 24012KT P6SM SCT030 OVC300 TX32/1919Z TN27/1912Z
BECMG 1903/1905 30006KT BKN030
FM191600 23010KT P6SM SCT100 BKN300
BECMG 1921/1922 BKN030 VC CB
MMFR FIR / North America



MET'MAP, your aeronautical weather chart ! - Copyright ORBIFLY December 2007 - Disclaimer

ORBIFLY MET'MAP TEAM :

Programming & Development : Alexandra Zaïnal
Original concept : Baudouin d'Aumeries
Technical & hardware support : Manuel Goepfert
Assistance : Marc-Olivier Méhu




SOURCES & CREDITS :

   NOAA       Earth
Advisory